createdAt,value
2018-06-27T00:00:20.766Z,101679.61
2018-06-27T00:02:51.300Z,101682.23
2018-06-27T00:05:21.224Z,101668.22
2018-06-27T00:07:51.853Z,101673.49
2018-06-27T00:10:23.456Z,101676.54
2018-06-27T00:12:55.117Z,101675.22
2018-06-27T00:15:24.291Z,101672.52
2018-06-27T00:17:54.626Z,101662.34
2018-06-27T00:20:23.866Z,101662.75
2018-06-27T00:22:54.195Z,101667.95
2018-06-27T00:25:24.747Z,101661.34
2018-06-27T00:27:54.985Z,101660.45
2018-06-27T00:30:26.270Z,101656.89
2018-06-27T00:32:57.826Z,101654.67
2018-06-27T00:35:27.745Z,101655.52
2018-06-27T00:37:59.579Z,101656.36
2018-06-27T00:40:30.999Z,101661.53
2018-06-27T00:43:02.689Z,101669.42
2018-06-27T00:45:35.268Z,101668.06
2018-06-27T00:48:04.791Z,101677.20
2018-06-27T00:50:41.684Z,101680.19
2018-06-27T00:53:11.432Z,101683.23
2018-06-27T00:55:40.817Z,101680.55
2018-06-27T00:58:12.831Z,101670.00
2018-06-27T01:00:44.297Z,101674.34
2018-06-27T01:03:16.732Z,101666.00
2018-06-27T01:05:46.729Z,101673.86
2018-06-27T01:08:17.471Z,101666.81
2018-06-27T01:10:49.790Z,101666.38
2018-06-27T01:13:19.506Z,101672.06
2018-06-27T01:15:49.451Z,101666.81
2018-06-27T01:18:19.845Z,101669.48
2018-06-27T01:20:49.240Z,101676.14
2018-06-27T01:23:19.971Z,101671.81
2018-06-27T01:25:50.929Z,101667.04
2018-06-27T01:28:22.718Z,101669.66
2018-06-27T01:30:53.866Z,101677.14
2018-06-27T01:33:23.056Z,101684.55
2018-06-27T01:35:54.914Z,101683.70
2018-06-27T01:38:24.833Z,101681.97
2018-06-27T01:40:55.906Z,101678.96
2018-06-27T01:43:27.525Z,101685.57
2018-06-27T01:45:57.719Z,101685.19
2018-06-27T01:48:27.410Z,101684.37
2018-06-27T01:50:56.741Z,101685.28
2018-06-27T01:53:27.608Z,101677.37
2018-06-27T01:55:57.741Z,101675.16
2018-06-27T01:58:29.772Z,101681.25
2018-06-27T02:01:00.429Z,101676.81
2018-06-27T02:03:29.882Z,101671.92
2018-06-27T02:06:01.896Z,101686.76
2018-06-27T02:08:31.483Z,101679.70
2018-06-27T02:11:02.580Z,101683.59
2018-06-27T02:13:32.544Z,101683.13
2018-06-27T02:16:04.391Z,101683.56
2018-06-27T02:18:35.467Z,101690.10
2018-06-27T02:21:04.748Z,101689.22
2018-06-27T02:23:33.943Z,101691.37
2018-06-27T02:26:05.451Z,101688.73
2018-06-27T02:28:35.412Z,101692.66
2018-06-27T02:31:07.305Z,101692.21
2018-06-27T02:33:37.823Z,101698.30
2018-06-27T02:36:07.837Z,101701.35
2018-06-27T02:38:39.969Z,101699.16
2018-06-27T02:41:09.489Z,101702.19
2018-06-27T02:43:40.167Z,101699.53
2018-06-27T02:46:10.771Z,101693.34
2018-06-27T02:48:42.411Z,101691.62
2018-06-27T02:51:12.375Z,101695.98
2018-06-27T02:53:41.640Z,101699.44
2018-06-27T02:56:13.268Z,101691.11
2018-06-27T02:58:43.369Z,101697.24
2018-06-27T03:01:15.099Z,101698.56
2018-06-27T03:03:45.082Z,101699.44
2018-06-27T03:06:15.194Z,101708.20
2018-06-27T03:08:46.070Z,101713.88
2018-06-27T03:11:16.119Z,101716.50
2018-06-27T03:13:47.689Z,101717.81
2018-06-27T03:16:19.193Z,101715.64
2018-06-27T03:18:56.523Z,101717.41
2018-06-27T03:21:26.266Z,101720.05
2018-06-27T03:23:56.575Z,101723.62
2018-06-27T03:26:28.518Z,101736.37
2018-06-27T03:28:59.993Z,101725.06
2018-06-27T03:31:29.455Z,101727.73
2018-06-27T03:34:00.307Z,101727.83
2018-06-27T03:36:31.162Z,101727.46
2018-06-27T03:39:02.954Z,101731.52
2018-06-27T03:41:34.877Z,101731.64
2018-06-27T03:44:04.428Z,101741.41
2018-06-27T03:46:36.295Z,101742.34
2018-06-27T03:49:07.352Z,101747.67
2018-06-27T03:51:38.912Z,101744.72
2018-06-27T03:54:08.813Z,101747.54
2018-06-27T03:56:38.275Z,101745.34
2018-06-27T03:59:07.510Z,101739.38
2018-06-27T04:01:38.970Z,101741.44
2018-06-27T04:04:08.347Z,101746.45
2018-06-27T04:06:40.662Z,101742.14
2018-06-27T04:09:12.927Z,101746.98
2018-06-27T04:11:44.916Z,101747.98
2018-06-27T04:14:14.954Z,101744.91
2018-06-27T04:16:45.245Z,101749.20
2018-06-27T04:19:16.969Z,101752.47
2018-06-27T04:21:47.480Z,101751.41
2018-06-27T04:24:18.766Z,101746.45
2018-06-27T04:26:48.721Z,101752.00
2018-06-27T04:29:18.460Z,101753.75
2018-06-27T04:31:51.115Z,101746.33
2018-06-27T04:34:20.400Z,101749.45
2018-06-27T04:36:50.640Z,101750.41
2018-06-27T04:39:21.298Z,101747.84
2018-06-27T04:41:51.716Z,101758.08
2018-06-27T04:44:21.641Z,101749.09
2018-06-27T04:46:53.095Z,101752.06
2018-06-27T04:49:23.659Z,101764.86
2018-06-27T04:51:52.926Z,101761.94
2018-06-27T04:54:22.666Z,101760.64
2018-06-27T04:56:53.425Z,101762.86
2018-06-27T04:59:23.683Z,101766.63
2018-06-27T05:01:55.369Z,101760.10
2018-06-27T05:04:24.788Z,101762.61
2018-06-27T05:06:57.252Z,101773.50
2018-06-27T05:09:27.243Z,101771.56
2018-06-27T05:11:57.951Z,101772.92
2018-06-27T05:14:29.432Z,101767.55
2018-06-27T05:17:00.068Z,101776.42
2018-06-27T05:19:31.428Z,101782.61
2018-06-27T05:22:00.696Z,101787.64
2018-06-27T05:24:32.389Z,101790.68
2018-06-27T05:27:01.726Z,101786.64
2018-06-27T05:29:32.888Z,101781.99
2018-06-27T05:32:03.480Z,101783.11
2018-06-27T05:34:35.442Z,101787.47
2018-06-27T05:37:08.536Z,101782.63
2018-06-27T05:39:37.821Z,101789.20
2018-06-27T05:42:09.771Z,101789.02
2018-06-27T05:44:40.586Z,101785.45
2018-06-27T05:47:12.965Z,101786.48
2018-06-27T05:49:44.918Z,101783.55
2018-06-27T05:52:14.227Z,101794.60
2018-06-27T05:54:46.423Z,101792.33
2018-06-27T05:57:17.358Z,101796.36
2018-06-27T05:59:48.678Z,101800.89
2018-06-27T06:02:20.357Z,101799.87
2018-06-27T06:04:49.960Z,101803.43
2018-06-27T06:07:22.064Z,101805.66
2018-06-27T06:09:51.278Z,101809.66
2018-06-27T06:12:23.006Z,101807.98
2018-06-27T06:14:53.123Z,101809.84
2018-06-27T06:17:25.259Z,101809.98
2018-06-27T06:19:56.329Z,101814.00
2018-06-27T06:22:27.156Z,101811.91
2018-06-27T06:24:58.118Z,101813.25
2018-06-27T06:27:27.467Z,101815.88
2018-06-27T06:29:58.951Z,101818.03
2018-06-27T06:32:28.263Z,101820.97
2018-06-27T06:34:58.420Z,101827.64
2018-06-27T06:37:28.286Z,101810.56
2018-06-27T06:39:58.054Z,101819.55
2018-06-27T06:42:28.460Z,101823.78
2018-06-27T06:44:59.685Z,101822.27
2018-06-27T06:47:30.755Z,101818.81
2018-06-27T06:50:00.013Z,101820.95
2018-06-27T06:52:31.685Z,101823.67
2018-06-27T06:55:01.955Z,101823.27
2018-06-27T06:57:32.158Z,101832.70
2018-06-27T07:00:02.457Z,101829.77
2018-06-27T07:02:34.283Z,101828.35
2018-06-27T07:05:04.447Z,101822.92
2018-06-27T07:07:33.649Z,101832.25
2018-06-27T07:10:05.780Z,101831.09
2018-06-27T07:12:36.374Z,101827.09
2018-06-27T07:15:07.808Z,101831.44
2018-06-27T07:17:38.854Z,101829.51
2018-06-27T07:20:08.403Z,101830.66
2018-06-27T07:22:38.825Z,101831.55
2018-06-27T07:25:08.435Z,101830.17
2018-06-27T07:27:39.132Z,101829.61
2018-06-27T07:30:10.150Z,101821.48
2018-06-27T07:32:42.182Z,101827.66
2018-06-27T07:35:11.372Z,101843.23
2018-06-27T07:37:40.659Z,101836.92
2018-06-27T07:40:11.484Z,101830.75
2018-06-27T07:42:43.189Z,101842.28
2018-06-27T07:45:14.370Z,101833.41
2018-06-27T07:47:43.551Z,101836.95
2018-06-27T07:50:16.210Z,101847.72
2018-06-27T07:52:46.076Z,101840.80
2018-06-27T07:55:15.300Z,101847.89
2018-06-27T07:57:45.263Z,101847.92
2018-06-27T08:00:14.397Z,101835.00
2018-06-27T08:02:43.592Z,101833.03
2018-06-27T08:05:12.787Z,101840.78
2018-06-27T08:07:41.947Z,101829.08
2018-06-27T08:10:11.200Z,101830.14
2018-06-27T08:12:40.501Z,101822.21
2018-06-27T08:15:09.602Z,101835.41
2018-06-27T08:17:38.766Z,101830.32
2018-06-27T08:20:08.018Z,101834.58
2018-06-27T08:22:37.226Z,101836.99
2018-06-27T08:25:06.481Z,101838.76
2018-06-27T08:27:35.661Z,101841.83
2018-06-27T08:30:05.803Z,101847.19
2018-06-27T08:32:34.937Z,101838.53
2018-06-27T08:35:04.056Z,101848.27
2018-06-27T08:37:33.145Z,101839.20
2018-06-27T08:40:02.290Z,101834.22
2018-06-27T08:42:31.436Z,101831.84
2018-06-27T08:45:00.777Z,101827.22
2018-06-27T08:47:29.921Z,101829.13
2018-06-27T08:49:59.149Z,101837.27
2018-06-27T08:52:28.297Z,101837.73
2018-06-27T08:54:57.449Z,101835.35
2018-06-27T08:57:26.594Z,101843.36
2018-06-27T08:59:55.751Z,101833.85
2018-06-27T09:02:24.890Z,101845.34
2018-06-27T09:04:54.176Z,101835.07
2018-06-27T09:07:23.314Z,101847.99
2018-06-27T09:09:52.518Z,101853.56
2018-06-27T09:12:21.861Z,101848.98
2018-06-27T09:14:51.022Z,101849.83
2018-06-27T09:17:20.181Z,101856.50
2018-06-27T09:19:49.349Z,101850.11
2018-06-27T09:22:18.474Z,101854.73
2018-06-27T09:24:47.584Z,101864.99
2018-06-27T09:27:16.711Z,101857.56
2018-06-27T09:29:45.846Z,101851.38
2018-06-27T09:32:14.967Z,101858.02
2018-06-27T09:34:44.224Z,101865.78
2018-06-27T09:37:13.507Z,101852.98
2018-06-27T09:39:42.708Z,101863.63
2018-06-27T09:42:11.921Z,101861.11
2018-06-27T09:44:41.261Z,101868.66
2018-06-27T09:47:12.570Z,101868.98
2018-06-27T09:49:42.301Z,101858.92
2018-06-27T09:52:11.614Z,101854.72
2018-06-27T09:54:41.639Z,101845.14
2018-06-27T09:57:12.697Z,101854.02
2018-06-27T09:59:42.791Z,101851.93
2018-06-27T10:02:12.934Z,101847.49
2018-06-27T10:04:42.212Z,101842.39
2018-06-27T10:07:11.434Z,101837.45
2018-06-27T10:09:40.545Z,101834.02
2018-06-27T10:12:09.689Z,101839.17
2018-06-27T10:14:38.834Z,101846.32
2018-06-27T10:17:07.982Z,101824.47
2018-06-27T10:19:37.152Z,101833.80
2018-06-27T10:22:06.542Z,101833.17
2018-06-27T10:24:35.691Z,101832.09
2018-06-27T10:27:05.104Z,101824.78
2018-06-27T10:29:34.245Z,101815.59
2018-06-27T10:32:03.422Z,101820.11
2018-06-27T10:34:32.543Z,101809.58
2018-06-27T10:37:01.710Z,101814.38
2018-06-27T10:39:30.858Z,101814.05
2018-06-27T10:42:00.013Z,101814.38
2018-06-27T10:44:29.135Z,101807.28
2018-06-27T10:46:58.418Z,101813.27
2018-06-27T10:49:27.546Z,101821.64
2018-06-27T10:51:56.687Z,101816.50
2018-06-27T10:54:25.835Z,101813.61
2018-06-27T10:56:55.197Z,101807.14
2018-06-27T10:59:24.375Z,101815.73
2018-06-27T11:01:53.959Z,101809.50
2018-06-27T11:04:23.101Z,101811.02
2018-06-27T11:06:52.232Z,101806.27
2018-06-27T11:09:21.370Z,101793.98
2018-06-27T11:11:50.590Z,101802.11
2018-06-27T11:14:19.706Z,101800.48
2018-06-27T11:16:48.850Z,101811.27
2018-06-27T11:19:17.971Z,101804.58
2018-06-27T11:21:47.153Z,101803.23
2018-06-27T11:24:16.311Z,101807.28
2018-06-27T11:26:45.451Z,101810.12
2018-06-27T11:29:14.646Z,101808.11
2018-06-27T11:31:43.764Z,101804.29
2018-06-27T11:34:12.941Z,101801.45
2018-06-27T11:36:42.121Z,101803.11
2018-06-27T11:39:12.767Z,101802.02
2018-06-27T11:41:42.790Z,101806.48
2018-06-27T11:44:13.581Z,101804.48
2018-06-27T11:46:42.738Z,101803.70
2018-06-27T11:49:11.902Z,101794.42
2018-06-27T11:51:41.033Z,101796.13
2018-06-27T11:54:10.134Z,101792.18
2018-06-27T11:56:39.264Z,101780.66
2018-06-27T11:59:08.419Z,101792.61
2018-06-27T12:01:37.566Z,101778.55
2018-06-27T12:04:06.718Z,101791.73
2018-06-27T12:06:35.874Z,101808.89
2018-06-27T12:09:07.839Z,101792.16
2018-06-27T12:11:37.003Z,101785.52
2018-06-27T12:14:06.443Z,101789.68
2018-06-27T12:16:35.659Z,101784.28
2018-06-27T12:19:04.835Z,101777.96
2018-06-27T12:21:34.078Z,101773.02
2018-06-27T12:24:03.221Z,101772.59
2018-06-27T12:26:32.427Z,101771.77
2018-06-27T12:29:01.564Z,101774.64
2018-06-27T12:31:30.700Z,101767.30
2018-06-27T12:33:59.816Z,101769.70
2018-06-27T12:36:28.929Z,101768.24
2018-06-27T12:38:58.040Z,101765.16
2018-06-27T12:41:27.216Z,101762.80
2018-06-27T12:43:56.358Z,101763.48
2018-06-27T12:46:25.488Z,101761.68
2018-06-27T12:48:54.618Z,101754.99
2018-06-27T12:51:23.826Z,101755.52
2018-06-27T12:53:52.975Z,101759.94
2018-06-27T12:56:22.186Z,101762.30
2018-06-27T12:58:51.298Z,101755.81
2018-06-27T13:01:20.497Z,101754.93
2018-06-27T13:03:49.897Z,101761.42
2018-06-27T13:06:19.074Z,101757.16
2018-06-27T13:08:48.842Z,101749.38
2018-06-27T13:11:18.116Z,101739.84
2018-06-27T13:13:47.253Z,101756.08
2018-06-27T13:16:16.379Z,101750.20
2018-06-27T13:18:45.495Z,101746.08
2018-06-27T13:21:14.673Z,101741.90
2018-06-27T13:23:43.788Z,101739.63
2018-06-27T13:26:12.921Z,101736.92
2018-06-27T13:28:42.178Z,101740.27
2018-06-27T13:31:11.306Z,101738.92
2018-06-27T13:33:40.482Z,101744.80
2018-06-27T13:36:09.665Z,101747.64
2018-06-27T13:38:38.782Z,101746.34
2018-06-27T13:41:07.944Z,101748.69
2018-06-27T13:43:37.078Z,101742.20
2018-06-27T13:46:06.392Z,101737.30
2018-06-27T13:48:35.515Z,101731.98
2018-06-27T13:51:04.636Z,101733.70
2018-06-27T13:53:33.791Z,101737.28
2018-06-27T13:56:02.960Z,101724.97
2018-06-27T13:58:32.761Z,101738.72
2018-06-27T14:01:02.122Z,101725.73
2018-06-27T14:03:31.279Z,101726.97
2018-06-27T14:06:00.445Z,101730.69
2018-06-27T14:08:29.594Z,101726.31
2018-06-27T14:10:58.745Z,101726.70
2018-06-27T14:13:28.046Z,101720.97
2018-06-27T14:15:57.222Z,101717.48
2018-06-27T14:18:26.770Z,101715.66
2018-06-27T14:20:55.932Z,101711.91
2018-06-27T14:23:25.080Z,101703.28
2018-06-27T14:25:54.244Z,101711.72
2018-06-27T14:28:23.430Z,101720.66
2018-06-27T14:30:52.638Z,101722.64
2018-06-27T14:33:21.605Z,101722.73
2018-06-27T14:35:50.787Z,101718.53
2018-06-27T14:38:20.024Z,101719.99
2018-06-27T14:40:49.223Z,101719.02
2018-06-27T14:43:18.550Z,101704.88
2018-06-27T14:45:47.769Z,101711.59
2018-06-27T14:48:16.942Z,101714.63
2018-06-27T14:50:46.213Z,101708.45
2018-06-27T14:53:15.231Z,101707.78
2018-06-27T14:55:44.386Z,101710.45
2018-06-27T14:58:13.551Z,101707.94
2018-06-27T15:00:42.765Z,101704.80
2018-06-27T15:03:11.984Z,101706.84
2018-06-27T15:05:41.512Z,101716.34
2018-06-27T15:08:10.797Z,101712.16
2018-06-27T15:10:40.338Z,101708.85
2018-06-27T15:13:09.516Z,101716.30
2018-06-27T15:15:38.664Z,101710.36
2018-06-27T15:18:07.801Z,101716.69
2018-06-27T15:20:36.978Z,101706.58
2018-06-27T15:23:06.249Z,101711.66
2018-06-27T15:25:35.680Z,101705.16
2018-06-27T15:28:04.900Z,101702.34
2018-06-27T15:30:34.061Z,101714.50
2018-06-27T15:33:03.328Z,101699.88
2018-06-27T15:35:32.541Z,101698.30
2018-06-27T15:38:01.887Z,101695.55
2018-06-27T15:40:31.239Z,101695.83
2018-06-27T15:43:00.554Z,101700.94
2018-06-27T15:45:29.802Z,101697.50
2018-06-27T15:47:59.109Z,101688.98
2018-06-27T15:50:28.395Z,101692.71
2018-06-27T15:52:57.569Z,101695.16
2018-06-27T15:55:26.714Z,101684.13
2018-06-27T15:57:55.892Z,101686.42
2018-06-27T16:00:25.051Z,101690.13
2018-06-27T16:02:54.174Z,101683.53
2018-06-27T16:05:23.301Z,101688.29
2018-06-27T16:07:52.447Z,101681.82
2018-06-27T16:10:22.111Z,101687.23
2018-06-27T16:12:57.697Z,101676.25
2018-06-27T16:15:26.839Z,101681.06
2018-06-27T16:17:56.065Z,101675.53
2018-06-27T16:20:25.292Z,101678.37
2018-06-27T16:22:54.467Z,101666.20
2018-06-27T16:25:23.635Z,101673.08
2018-06-27T16:27:52.766Z,101671.65
2018-06-27T16:30:21.899Z,101660.59
2018-06-27T16:32:51.068Z,101660.31
2018-06-27T16:35:20.327Z,101664.03
2018-06-27T16:37:49.621Z,101667.72
2018-06-27T16:40:18.801Z,101662.33
2018-06-27T16:42:47.940Z,101661.55
2018-06-27T16:45:17.118Z,101659.25
2018-06-27T16:47:46.129Z,101660.75
2018-06-27T16:50:15.464Z,101647.63
2018-06-27T16:52:44.752Z,101658.78
2018-06-27T16:55:14.164Z,101657.67
2018-06-27T16:57:43.362Z,101659.30
2018-06-27T17:00:12.534Z,101659.35
2018-06-27T17:02:41.698Z,101666.61
2018-06-27T17:05:10.842Z,101664.83
2018-06-27T17:07:40.136Z,101656.69
2018-06-27T17:10:09.279Z,101653.29
2018-06-27T17:12:38.416Z,101665.23
2018-06-27T17:15:07.655Z,101665.13
2018-06-27T17:17:36.792Z,101665.78
2018-06-27T17:20:06.292Z,101665.01
2018-06-27T17:22:35.418Z,101662.75
2018-06-27T17:25:04.590Z,101665.84
2018-06-27T17:27:33.738Z,101668.05
2018-06-27T17:30:02.890Z,101672.92
2018-06-27T17:32:32.063Z,101660.72
2018-06-27T17:35:01.205Z,101668.04
2018-06-27T17:37:30.384Z,101668.72
2018-06-27T17:39:59.508Z,101670.41
2018-06-27T17:42:28.873Z,101673.45
2018-06-27T17:44:58.026Z,101671.16
2018-06-27T17:47:27.198Z,101668.28
2018-06-27T17:49:56.430Z,101672.03
2018-06-27T17:52:25.671Z,101675.87
2018-06-27T17:54:54.825Z,101670.97
2018-06-27T17:57:24.106Z,101673.52
2018-06-27T17:59:53.392Z,101674.24
2018-06-27T18:02:22.593Z,101688.69
2018-06-27T18:04:51.934Z,101681.74
2018-06-27T18:07:21.206Z,101679.68
2018-06-27T18:09:50.488Z,101679.41
2018-06-27T18:12:19.727Z,101677.72
2018-06-27T18:14:48.950Z,101676.92
2018-06-27T18:17:18.205Z,101676.08
2018-06-27T18:19:48.424Z,101677.87
2018-06-27T18:22:18.053Z,101676.11
2018-06-27T18:24:47.219Z,101676.57
2018-06-27T18:27:16.360Z,101676.11
2018-06-27T18:29:45.551Z,101670.78
2018-06-27T18:32:14.719Z,101675.31
2018-06-27T18:34:43.643Z,101683.83
2018-06-27T18:37:12.885Z,101677.77
2018-06-27T18:39:42.214Z,101685.97
2018-06-27T18:42:16.206Z,101684.84
2018-06-27T18:44:45.454Z,101685.98
2018-06-27T18:47:14.694Z,101687.50
2018-06-27T18:49:43.904Z,101693.91
2018-06-27T18:52:13.030Z,101695.84
2018-06-27T18:54:42.237Z,101692.91
2018-06-27T18:57:11.385Z,101695.79
2018-06-27T18:59:40.602Z,101691.13
2018-06-27T19:02:10.209Z,101690.40
2018-06-27T19:04:39.382Z,101698.11
2018-06-27T19:07:08.506Z,101697.84
2018-06-27T19:09:37.642Z,101703.34
2018-06-27T19:12:06.819Z,101701.21
2018-06-27T19:14:36.038Z,101707.13
2018-06-27T19:17:05.346Z,101702.81
2018-06-27T19:19:34.497Z,101706.92
2018-06-27T19:22:03.879Z,101709.28
2018-06-27T19:24:33.004Z,101705.08
2018-06-27T19:27:02.235Z,101713.22
2018-06-27T19:29:31.387Z,101716.88
2018-06-27T19:32:00.535Z,101710.38
2018-06-27T19:34:29.669Z,101716.20
2018-06-27T19:36:58.906Z,101728.20
2018-06-27T19:39:37.465Z,101726.45
2018-06-27T19:41:57.181Z,101726.45
2018-06-27T19:44:26.408Z,101728.25
2018-06-27T19:46:55.562Z,101726.14
2018-06-27T19:49:24.727Z,101740.34
2018-06-27T19:51:53.915Z,101726.17
2018-06-27T19:54:23.103Z,101724.91
2018-06-27T19:56:52.224Z,101732.02
2018-06-27T19:59:21.427Z,101728.08
2018-06-27T20:01:52.903Z,101728.14
2018-06-27T20:04:22.660Z,101736.19
2018-06-27T20:06:52.978Z,101727.88
2018-06-27T20:09:23.310Z,101728.83
2018-06-27T20:11:54.847Z,101735.98
2018-06-27T20:14:27.338Z,101736.98
2018-06-27T20:16:56.459Z,101741.45
2018-06-27T20:19:28.225Z,101740.61
2018-06-27T20:22:00.339Z,101740.71
2018-06-27T20:24:31.792Z,101731.04
2018-06-27T20:27:03.279Z,101739.50
2018-06-27T20:29:32.513Z,101741.37
2018-06-27T20:32:02.678Z,101745.39
2018-06-27T20:34:32.757Z,101741.89
2018-06-27T20:37:02.637Z,101743.31
2018-06-27T20:39:32.520Z,101741.59
2018-06-27T20:42:04.474Z,101747.82
2018-06-27T20:44:36.397Z,101745.22
2018-06-27T20:47:05.660Z,101755.42
2018-06-27T20:49:36.698Z,101755.00
2018-06-27T20:52:07.194Z,101753.73
2018-06-27T20:54:39.136Z,101756.86
2018-06-27T20:57:10.604Z,101758.22
2018-06-27T20:59:39.779Z,101755.60
2018-06-27T21:02:10.350Z,101756.55
2018-06-27T21:04:40.202Z,101748.19
2018-06-27T21:07:10.617Z,101751.33
2018-06-27T21:09:42.242Z,101750.06
2018-06-27T21:12:12.686Z,101750.55
2018-06-27T21:14:44.193Z,101755.00
2018-06-27T21:17:13.372Z,101753.73
2018-06-27T21:19:44.279Z,101757.28
2018-06-27T21:22:13.865Z,101757.30
2018-06-27T21:24:44.808Z,101757.38
2018-06-27T21:27:15.396Z,101769.33
2018-06-27T21:29:47.100Z,101761.83
2018-06-27T21:32:18.092Z,101768.87
2018-06-27T21:34:47.328Z,101771.53
2018-06-27T21:37:17.338Z,101774.62
2018-06-27T21:39:47.487Z,101773.80
2018-06-27T21:42:16.668Z,101772.48
2018-06-27T21:44:48.606Z,101777.36
2018-06-27T21:47:17.855Z,101773.41
2018-06-27T21:49:49.908Z,101779.63
2018-06-27T21:52:20.564Z,101787.16
2018-06-27T21:54:52.421Z,101787.61
2018-06-27T21:57:22.336Z,101778.84
2018-06-27T21:59:51.562Z,101781.92
2018-06-27T22:02:23.522Z,101772.67
2018-06-27T22:04:52.771Z,101775.78
2018-06-27T22:07:22.701Z,101774.02
2018-06-27T22:09:53.527Z,101782.00
2018-06-27T22:12:23.277Z,101775.83
2018-06-27T22:14:53.196Z,101778.05
2018-06-27T22:17:22.568Z,101776.29
2018-06-27T22:19:54.198Z,101771.00
2018-06-27T22:22:23.409Z,101778.51
2018-06-27T22:24:53.959Z,101778.55
2018-06-27T22:27:23.125Z,101774.58
2018-06-27T22:29:53.437Z,101772.38
2018-06-27T22:32:24.971Z,101772.39
2018-06-27T22:34:55.808Z,101777.24
2018-06-27T22:37:25.057Z,101776.36
2018-06-27T22:39:56.527Z,101774.60
2018-06-27T22:42:26.416Z,101773.28
2018-06-27T22:44:58.142Z,101774.16
2018-06-27T22:47:29.751Z,101767.99
2018-06-27T22:50:00.274Z,101772.40
2018-06-27T22:52:33.064Z,101772.40
2018-06-27T22:55:02.254Z,101763.14
2018-06-27T22:57:34.720Z,101760.50
2018-06-27T23:00:05.353Z,101760.94
2018-06-27T23:02:36.865Z,101757.01
2018-06-27T23:05:06.808Z,101758.30
2018-06-27T23:07:36.139Z,101758.77
2018-06-27T23:10:07.620Z,101759.66
2018-06-27T23:12:39.240Z,101760.09
2018-06-27T23:15:11.944Z,101761.42
2018-06-27T23:17:41.815Z,101763.62
2018-06-27T23:20:11.187Z,101765.39
2018-06-27T23:22:46.463Z,101757.02
2018-06-27T23:25:16.269Z,101756.16
2018-06-27T23:27:46.695Z,101756.16
2018-06-27T23:30:16.698Z,101753.96
2018-06-27T23:32:47.285Z,101757.97
2018-06-27T23:35:19.463Z,101751.80
2018-06-27T23:37:48.691Z,101749.19
2018-06-27T23:40:19.921Z,101754.03
2018-06-27T23:42:49.101Z,101749.63
2018-06-27T23:45:20.033Z,101753.19
2018-06-27T23:47:49.692Z,101741.73
2018-06-27T23:50:20.932Z,101745.25
2018-06-27T23:52:51.757Z,101751.00
2018-06-27T23:55:23.010Z,101743.08
2018-06-27T23:57:54.994Z,101743.95
